»·PEaware :: N441PW KHLN-CYMM

N441PW :: KHLN-CYMM

FLIGHT INFORMATION

Flight Status: Arrived
Operator: Privately registered:
United States
More flights under this callsign
Pilot: Stacy K. (11621)
Aircraft: CESSNA 404 TITAN
(C404)
More flights by this aircraft type
Origin: KHLN Helena Regl
United States
Destination: CYMM Ft McMurray
Canada
More flights between these airports :: More routes between these airports
Route: HLN V365 CTB V21 YQL YYC YEG XD/N0230F070 B84 MM
File this flight plan on PilotEdge
Remarks: RMK / SIMBRIEF
Altitude:
(Current/Filed)
8,000ft
Speed:
(Current/Filed)
235kts
Departed: 12-May-19 06:26 AM
Arrived: 12-May-19 08:39 AM
Distance/Time
Traveled:
603nm/2:13
Distance/Time
To Go:
Arrived

Flight Plot

Page will automatically refresh every two minutes.


Map Options




Map Legend


Flown Route
Filed Route
Departure Airport
Arrival Airport
Navaid (VOR, NDB)
Fix

Horizontal Profiles

Position Reports

Time Latitude Longitude Heading Altitude Ground
Speed
12-May-19 06:24 50.375134 -113.264470 331 10418ft 187kts
12-May-19 06:25 50.420843 -113.302066 331 10424ft 185kts
12-May-19 06:26 50.466331 -113.339618 331 10427ft 184kts
12-May-19 06:27 50.471370 -113.343774 331 10423ft 184kts
12-May-19 06:28 50.512483 -113.377597 331 10424ft 185kts
12-May-19 06:29 50.557802 -113.415029 331 10424ft 184kts
12-May-19 06:30 50.602992 -113.452491 331 10497ft 182kts
12-May-19 06:31 50.647420 -113.489274 331 10825ft 172kts
12-May-19 06:32 50.689221 -113.524034 330 11495ft 169kts
12-May-19 06:33 50.730720 -113.558684 330 12164ft 170kts
12-May-19 06:34 50.773893 -113.594728 330 12502ft 182kts
12-May-19 06:35 50.819682 -113.633011 330 12499ft 187kts
12-May-19 06:36 50.865607 -113.671479 330 12499ft 186kts
12-May-19 06:37 50.910935 -113.709724 330 12500ft 185kts
12-May-19 06:38 50.956343 -113.748011 330 12498ft 184kts
12-May-19 06:39 51.001707 -113.786328 329 12500ft 184kts
12-May-19 06:40 51.045100 -113.822958 329 13005ft 171kts
12-May-19 06:41 51.086957 -113.858333 328 13608ft 169kts
12-May-19 06:42 51.131343 -113.882551 353 14219ft 177kts
12-May-19 06:43 51.181770 -113.882136 354 14502ft 188kts
12-May-19 06:44 51.235005 -113.881576 354 14499ft 192kts
12-May-19 06:45 51.288655 -113.880982 354 14497ft 193kts
12-May-19 06:46 51.342429 -113.880787 354 14496ft 194kts
12-May-19 06:47 51.396386 -113.880321 354 14499ft 194kts
12-May-19 06:48 51.450394 -113.879887 354 14498ft 193kts
12-May-19 06:49 51.504176 -113.879502 353 14496ft 193kts
12-May-19 06:50 51.557815 -113.879094 354 14492ft 192kts
12-May-19 06:51 51.611534 -113.878724 353 14498ft 192kts
12-May-19 06:52 51.665162 -113.878408 353 14496ft 193kts
12-May-19 06:53 51.718838 -113.877903 353 14491ft 193kts
12-May-19 06:54 51.772472 -113.877436 354 14490ft 193kts
12-May-19 06:55 51.826305 -113.877151 353 14489ft 193kts
12-May-19 06:56 51.879943 -113.876795 353 14485ft 193kts
12-May-19 06:57 51.933804 -113.876454 353 14487ft 193kts
12-May-19 06:58 51.987691 -113.876145 353 14485ft 193kts
12-May-19 06:59 52.041483 -113.875552 353 14485ft 193kts
12-May-19 07:00 52.095213 -113.875122 353 14483ft 193kts
12-May-19 07:01 52.148940 -113.874825 353 14484ft 192kts
12-May-19 07:02 52.202678 -113.874439 353 14483ft 192kts
12-May-19 07:03 52.256381 -113.874064 353 14484ft 193kts
12-May-19 07:04 52.310169 -113.873782 353 14483ft 194kts
12-May-19 07:05 52.364120 -113.873342 353 14481ft 193kts
12-May-19 07:06 52.417902 -113.872794 353 14481ft 193kts
12-May-19 07:07 52.472189 -113.872402 353 14461ft 201kts
12-May-19 07:08 52.472189 -113.872402 353 14461ft 201kts
12-May-19 07:09 52.472189 -113.872402 353 14461ft 201kts
12-May-19 07:10 52.472189 -113.872402 353 14461ft 201kts
12-May-19 07:11 52.472189 -113.872402 353 14461ft 201kts
12-May-19 07:12 52.472189 -113.872402 353 14461ft 201kts
12-May-19 07:13 52.472189 -113.872402 353 14461ft 201kts
12-May-19 07:14 52.472189 -113.872402 353 14461ft 201kts
12-May-19 07:15 52.472189 -113.872402 353 14461ft 201kts
12-May-19 07:16 52.472189 -113.872402 353 14461ft 201kts
12-May-19 07:17 52.472189 -113.872402 353 14461ft 201kts
12-May-19 07:18 52.472189 -113.872402 353 14461ft 201kts
12-May-19 07:19 52.472189 -113.872402 353 14461ft 201kts
12-May-19 07:20 52.472189 -113.872402 353 14461ft 201kts
12-May-19 07:21 52.472189 -113.872402 353 14461ft 201kts
12-May-19 07:22 52.472189 -113.872402 353 14461ft 201kts
12-May-19 07:23 52.472189 -113.872402 353 14461ft 201kts
12-May-19 07:24 52.472189 -113.872402 353 14461ft 201kts
12-May-19 07:25 52.472189 -113.872402 353 14461ft 201kts
12-May-19 07:26 52.472189 -113.872402 353 14461ft 201kts
12-May-19 07:27 52.472189 -113.872402 353 14461ft 201kts
12-May-19 07:28 52.472189 -113.872402 353 14461ft 201kts
12-May-19 07:29 52.472189 -113.872402 353 14461ft 201kts
12-May-19 07:30 52.472189 -113.872402 353 14461ft 201kts
12-May-19 07:31 52.472189 -113.872402 353 14461ft 201kts
12-May-19 07:32 52.472189 -113.872402 353 14461ft 201kts
12-May-19 07:33 52.472189 -113.872402 353 14461ft 201kts
12-May-19 07:34 52.472189 -113.872402 353 14461ft 201kts
12-May-19 07:35 52.472189 -113.872402 353 14461ft 201kts
12-May-19 07:36 52.472189 -113.872402 353 14461ft 201kts
12-May-19 07:37 52.472189 -113.872402 353 14461ft 201kts
12-May-19 07:38 52.472189 -113.872402 353 14461ft 201kts
12-May-19 07:39 52.472189 -113.872402 353 14461ft 201kts
12-May-19 07:40 52.472189 -113.872402 353 14461ft 201kts
12-May-19 07:41 52.472189 -113.872402 353 14461ft 201kts
12-May-19 07:42 52.472189 -113.872402 353 14461ft 201kts
12-May-19 07:43 52.472189 -113.872402 353 14461ft 201kts
12-May-19 07:44 52.472189 -113.872402 353 14461ft 201kts
12-May-19 07:45 52.472189 -113.872402 353 14461ft 201kts
12-May-19 07:46 52.472189 -113.872402 353 14461ft 201kts
12-May-19 07:47 52.472189 -113.872402 353 14461ft 201kts
12-May-19 07:48 52.472189 -113.872402 353 14461ft 201kts
12-May-19 07:50 52.472189 -113.872402 353 14461ft 201kts
12-May-19 07:53 54.878516 -112.662630 17 7484ft 195kts
12-May-19 07:54 54.928888 -112.626634 17 7480ft 197kts
12-May-19 07:55 54.979586 -112.590487 17 7479ft 196kts
12-May-19 07:56 55.030135 -112.554239 17 7475ft 196kts
12-May-19 07:57 55.080680 -112.518014 17 7475ft 197kts
12-May-19 07:58 55.098888 -112.504884 18 7473ft 196kts
12-May-19 07:59 55.098888 -112.504884 18 7473ft 196kts
12-May-19 08:00 55.098888 -112.504884 18 7473ft 196kts
12-May-19 08:01 55.098888 -112.504884 18 7473ft 196kts
12-May-19 08:02 55.098888 -112.504884 18 7473ft 196kts
12-May-19 08:03 55.098888 -112.504884 18 7473ft 196kts
12-May-19 08:04 55.098888 -112.504884 18 7473ft 196kts
12-May-19 08:05 55.098888 -112.504884 18 7473ft 196kts
12-May-19 08:06 55.098888 -112.504884 18 7473ft 196kts
12-May-19 08:07 55.098888 -112.504884 18 7473ft 196kts
12-May-19 08:08 55.098888 -112.504884 18 7473ft 196kts
12-May-19 08:09 55.098888 -112.504884 18 7473ft 196kts
12-May-19 08:10 55.098888 -112.504884 18 7473ft 196kts
12-May-19 08:11 55.098888 -112.504884 18 7473ft 196kts
12-May-19 08:12 55.098888 -112.504884 18 7473ft 196kts
12-May-19 08:13 55.098888 -112.504884 18 7473ft 196kts
12-May-19 08:13 55.098888 -112.504884 18 7473ft 196kts
12-May-19 08:15 55.098888 -112.504884 18 7473ft 196kts
12-May-19 08:34 56.652901 -110.948164 268 2896ft 186kts
12-May-19 08:35 56.653078 -111.051524 269 2895ft 186kts
12-May-19 08:36 56.653166 -111.135352 270 2051ft 143kts
12-May-19 08:37 56.653255 -111.199981 271 1319ft 107kts
12-May-19 08:38 56.653192 -111.227775 269 1216ft 19kts
12-May-19 08:39 56.653216 -111.231538 267 1216ft 23kts
12-May-19 08:40 56.653216 -111.231538 267 1216ft 23kts
12-May-19 08:41 56.653216 -111.231538 267 1216ft 23kts
12-May-19 08:42 56.653216 -111.231538 267 1216ft 23kts
12-May-19 08:43 56.653216 -111.231538 267 1216ft 23kts
12-May-19 08:44 56.653216 -111.231538 267 1216ft 23kts
12-May-19 08:45 56.653216 -111.231538 267 1216ft 23kts
12-May-19 08:46 56.653216 -111.231538 267 1216ft 23kts
12-May-19 08:47 56.653216 -111.231538 267 1216ft 23kts
12-May-19 08:48 56.653216 -111.231538 267 1216ft 23kts
12-May-19 08:49 56.653216 -111.231538 267 1216ft 23kts
12-May-19 08:50 56.653216 -111.231538 267 1216ft 23kts
12-May-19 08:51 56.653216 -111.231538 267 1216ft 23kts
12-May-19 08:52 56.653216 -111.231538 267 1216ft 23kts

Navigation Log

Ident Type
Flight plan parsing failed, navigation log unavailable